AirNav   Everest Fuels
 
 662 users online  

FD48 Deep Forest Airport
Jacksonville, Florida, USA

GOING TO JACKSONVILLE?


FAA INFORMATION EFFECTIVE 18 JUNE 2020

Location

FAA Identifier: FD48
Lat/Long: 30-14-30.8700N 081-26-59.3070W
30-14.514500N 081-26.988450W
30.2419083,-81.4498075
(estimated)
Elevation: 24 ft. / 7 m (estimated)
Variation: 03W (1985)
From city: 12 miles E of JACKSONVILLE, FL
Time zone: UTC -4 (UTC -5 during Standard Time)
Zip code: 32224

Airport Operations

Airport use: Private use. Permission required prior to landing
Activation date: 10/1985
Control tower: no
ARTCC: JACKSONVILLE CENTER
FSS: GAINESVILLE FLIGHT SERVICE STATION
Attendance: UNATNDD
Wind indicator: yes
Segmented circle: no
Lights: FOR MIRL RY 18/36 CALL 904-509-8501

Airport Communications

WX ASOS at CRG (7 nm NW): PHONE 904-646-4670
WX AWOS-3PT at SGJ (18 nm S): 119.625 (904-824-7084)
WX AWOS-3 at HEG (19 nm W): 119.275 (904-695-0334)
WX ASOS at JAX (20 nm NW): PHONE 904-741-4304

Nearby radio navigation aids

VOR radial/distance  VOR name  Freq  Var
CRGr155/6.6CRAIG VORTAC114.5003W
SGJr346/18.2ST AUGUSTINE VOR/DME109.4006W
VQQr089/(22.9)CECIL VOR117.9003W

 
NDB name  Hdg/Dist  Freq  Var  ID
REYNOLDS040/19.733807WRYD .-. -.-- -..

Airport Services

Fuel available: A1

Runway Information

Runway 18/36

Dimensions: 6425 x 60 ft. / 1958 x 18 m
Surface: asphalt
Runway edge lights: non-standard
NSTD MIRL; INNER 5000 FT PORTION OF RY LGTD WITH WHITE LGTS; DSPLCD THLDS LGTD WITH BLUE LGTS; THLD LGTD WITH RED LGTS.
RUNWAY 18  RUNWAY 36
Traffic pattern: leftleft
Displaced threshold: 700 ft.700 ft.

Airport Ownership and Management from official FAA records

Ownership: Privately-owned
Owner: GEORGE HODGES, JR.
PO BOX 16771
JACKSONVILLE, FL 32245-6771
Phone 904-509-8501
Manager: JOHN R. CATHEY
P.O. BOX 17393
JACKSONVILLE, FL 32245-7393
Phone 904-223-0153

Airport Operational Statistics

Aircraft based on the field: 1
Jet airplanes: 1
    

Additional Remarks

FOR CD CTC JACKSONVILLE APCH AT 904-741-0284.

Instrument Procedures

There are no published instrument procedures at FD48.

Some nearby airports with instrument procedures:

KCRG - Jacksonville Executive Airport at Craig (7 nm NW)
KNRB - Mayport Naval Station (Adm David L. McDonald Field) (9 nm N)
KNIP - Jacksonville Naval Air Station (Towers Field) (12 nm W)
KSGJ - Northeast Florida Regional Airport (18 nm S)
KHEG - Herlong Recreational Airport (19 nm W)
KJAX - Jacksonville International Airport (20 nm NW)
 
Loc | Ops | Rwys | IFR | FBO | Links
Com | Nav | Svcs | Stats | Notes
Area around FD48 (Deep Forest Airport)
 
Road maps at: MapQuest Bing Google
 
Aerial photo
No photo
 
Sectional chart

 
Airport distance calculator
Flying to Deep Forest Airport? Find the distance to fly.

From to FD48

Sunrise and sunset
Times for 14-Jul-2020
 Local
(UTC-4)
 Zulu
(UTC)
Morning civil twilight06:0810:08
Sunrise06:3510:35
Sunset20:2800:28
Evening civil twilight20:5500:55

Current date and time
Zulu (UTC)  14-Jul-2020 04:13:19
Local (UTC-4)  14-Jul-2020 00:13:19
 
METAR
KCRG 
6nm NW 
140353Z AUTO 26008KT 10SM CLR 30/23 A2995 RMK AO2 SLP141 T03000228 $
KNRB 
9nm N 
140352Z 26006KT 10SM FEW040 30/23 A2994 RMK AO2 SLP138 T03000233
KNIP 
11nm W 
140353Z 27011KT 10SM SCT250 29/23 A2996 RMK AO2 SLP140 T02940228
KSGJ 
18nm SE 
140356Z AUTO 24006KT 10SM CLR 28/24 A2996 RMK AO2 SLP146 T02780239 403390233 $
KHEG 
19nm W 
140355Z AUTO 24005KT 8SM CLR 28/24 A2998 RMK AO2
KJAX 
20nm NW 
140356Z 26005KT 10SM FEW250 27/23 A2994 RMK AO2 SLP140 T02670233
TAF
KCRG 
6nm NW 
132249Z 1323/1418 24011KT P6SM SCT050 SCT070 FM140100 24006KT P6SM FEW050 FEW250 FM140900 27003KT P6SM SKC
KNRB 
9nm N 
1323/1423 24008KT 9999 SCT040 SCT250 QNH2983INS FM140300 24005KT 9999 FEW100 FEW250 QNH2985INS FM141700 15010G15KT 9999 VCTS SCT040CB SCT100 BKN250 QNH2990INS AUTOMATED SENSOR METWATCH 1404 TIL 1409 T24/1411Z T34/1419Z FN20022
KNIP 
11nm W 
1323/1423 24011KT 9999 SCT040 SCT250 QNH2985INS FM140100 24006KT 9999 FEW050 SCT250 QNH2988INS FM141400 26007KT 9999 FEW030 BKN250 QNH2990INS FM141800 30008KT 9999 VCTS SCT040CB BKN065 BKN250 QNH2993INS T26/1411Z T35/1420Z FN20061
KSGJ 
18nm SE 
132214Z 1322/1418 22009KT P6SM FEW050 FM140900 27003KT P6SM SKC
KJAX 
20nm NW 
131957Z 1320/1418 24010KT P6SM SCT050 SCT120 SCT250 FM140200 24006KT P6SM FEW050 FEW250 FM140900 27003KT P6SM SKC
NOTAMs
Click for the latest NOTAMs
NOTAMs are issued by the DoD/FAA and will open in a separate window not controlled by AirNav.

 

 
 

Would you like to see your business listed on this page?

 If your business provides an interesting product or service to pilots, flight crews, aircraft, or users of the Deep Forest Airport, you should consider listing it here.  To start the listing process, click on the button below
 
Add a business
 

Other Pages about Deep Forest Airport

Update a link
 
Copyright © AirNav, LLC. All rights reserved. Privacy Policy  Contact